Flight Track Log - Related Links

Times and Time Zones

All times are in EDT time to prevent confusion due to time zone crossing. See the ASH3732 flight status page for this flight to view local times or setup timezone preferences in your user account.

Time Position Orientation Groundspeed Altitude Reporting Facility
EDT Latitude Longitude Course Direction KTS MPH feet Rate Location/Type
Sun 06:36:45 AM 35.8686 -78.8114 11° North 145 167 1,500  Level Washington Center
Sun 06:37:21 AM 35.8531 -78.8442 240° Southwest 173 199 2,700 2,447 Climbing Washington Center
Sun 06:38:01 AM 35.8903 -78.8583 343° North 222 255 4,600 2,529 Climbing Washington Center
Sun 06:39:00 AM 36.1206 -78.6918 18° North  Level FlightAware Approximate
Sun 06:39:03 AM 35.9408 -78.8425 14° North 239 275 7,000  Level Washington Center
Sun 06:40:00 AM 36.2050 -78.6580 18° North  Level FlightAware Approximate
Sun 06:40:00 AM 36.0128 -78.8069 22° Northeast 247 284 8,700  Level Washington Center
Sun 06:41:00 AM 36.2894 -78.6243 18° North  Level FlightAware Approximate
Sun 06:41:00 AM 36.0931 -78.7639 23° Northeast 276 318 11,200  Level Washington Center
Sun 06:41:59 AM 36.1906 -78.7114 23° Northeast 319 367 12,900 2,150 Climbing Washington Center
Sun 06:42:00 AM 36.3745 -78.5939 11° North  Level FlightAware Approximate
Sun 06:43:00 AM 36.2858 -78.6608 23° Northeast 365 420 15,500  Level Washington Center
Sun 06:44:02 AM 36.3808 -78.6131 22° Northeast 371 427 17,200 1,537 Climbing Washington Center
Sun 06:45:01 AM 36.4778 -78.5703 20° North 378 435 18,600 1,250 Climbing Washington Center
Sun 06:46:02 AM 36.5872 -78.5331 15° North 394 453 19,700 1,271 Climbing Washington Center
Sun 06:46:59 AM 36.7033 -78.4858 18° North 412 474 21,100 1,169 Climbing Washington Center
Sun 06:48:00 AM 36.8281 -78.4100 26° Northeast 430 495 22,000 443 Climbing Washington Center
Sun 06:49:01 AM 36.9322 -78.3253 33° Northeast 445 512 22,000  Level Washington Center
Sun 06:49:59 AM 37.0386 -78.2356 34° Northeast 459 528 22,000  Level Washington Center
Sun 06:51:02 AM 37.1236 -78.1681 32° Northeast 459 528 22,000  Level Washington Center
Sun 06:52:02 AM 37.2467 -78.0678 33° Northeast 444 511 22,000  Level Washington Center
Sun 06:53:02 AM 37.3486 -77.9797 34° Northeast 439 505 22,000 -153 Level Washington Center
Sun 06:54:00 AM 37.4547 -77.8914 33° Northeast 450 518 21,700 -1,160 Descending Washington Center
Sun 06:55:01 AM 37.5606 -77.8081 32° Northeast 450 518 19,700 -1,918 Descending Washington Center
Sun 06:56:02 AM 37.6700 -77.7458 24° Northeast 432 497 17,800 -1,983 Descending Washington Center
Sun 06:56:59 AM 37.7733 -77.6856 25° Northeast 418 481 15,800 -2,051 Descending Washington Center
Sun 06:57:59 AM 37.8703 -77.6278 25° Northeast 398 458 13,800 -1,967 Descending Washington Center
Sun 06:59:01 AM 37.9692 -77.5700 25° Northeast 384 442 11,800 -1,805 Descending Washington Center
Sun 07:00:02 AM 38.0597 -77.5197 24° Northeast 372 428 10,100 -900 Descending Washington Center
Sun 07:01:01 AM 38.1397 -77.4742 24° Northeast 337 388 10,000 -50 Descending Washington Center
Sun 07:02:01 AM 38.2156 -77.4283 25° Northeast 316 364 10,000 -397 Level Washington Center
Sun 07:03:02 AM 38.2914 -77.3828 25° Northeast 302 348 9,200 -1,169 Descending Washington Center
Sun 07:03:59 AM 38.3708 -77.3556 15° North 302 348 7,700 -1,513 Descending Washington Center
Sun 07:05:01 AM 38.4439 -77.3625 356° North 288 331 6,200 -1,328 Descending Washington Center
Sun 07:06:01 AM 38.5208 -77.3642 359° North 283 326 5,000 -655 Descending Washington Center
Sun 07:07:00 AM 38.5958 -77.3661 359° North 273 314 4,900 -588 Descending Washington Center
Sun 07:07:43 AM 38.6667 -77.3667 360° North 274 315 4,000 -557 Descending Potomac TRACON
Sun 07:08:37 AM 38.7333 -77.3667 360° North 268 308 4,000 -105 Level Potomac TRACON
Sun 07:09:37 AM 38.8000 -77.3500 11° North 268 308 3,800 -500 Descending Potomac TRACON
Sun 07:10:37 AM 38.8667 -77.3500 360° North 257 296 3,000 -421 Descending Potomac TRACON
Sun 07:11:31 AM 38.9333 -77.3500 360° North 260 299 3,000  Level Potomac TRACON
Sun 07:12:31 AM 39.0167 -77.3500 360° North 260 299 3,000 -158 Level Potomac TRACON
Sun 07:13:25 AM 39.0667 -77.3667 345° North 212 244 2,700 -333 Descending Potomac TRACON

Login

Don't have an account? Register now (free) for customized features, flight alerts, and more!